sensor_id;sensor_type;location;lat;lon;timestamp;temperature;humidity
15596;DHT22;7898;48.658;9.068;2022-12-19T00:00:01;-2.60;99.90
15596;DHT22;7898;48.658;9.068;2022-12-19T00:02:29;-2.50;99.90
15596;DHT22;7898;48.658;9.068;2022-12-19T00:04:57;-2.50;99.90
15596;DHT22;7898;48.658;9.068;2022-12-19T00:07:24;-2.50;99.90
15596;DHT22;7898;48.658;9.068;2022-12-19T00:09:51;-2.50;99.90
15596;DHT22;7898;48.658;9.068;2022-12-19T00:12:18;-2.50;99.90
15596;DHT22;7898;48.658;9.068;2022-12-19T00:14:46;-2.40;99.90
15596;DHT22;7898;48.658;9.068;2022-12-19T00:17:13;-2.30;99.90
15596;DHT22;7898;48.658;9.068;2022-12-19T00:19:41;-2.40;99.90
15596;DHT22;7898;48.658;9.068;2022-12-19T00:22:08;-2.40;99.90
15596;DHT22;7898;48.658;9.068;2022-12-19T00:24:35;-2.40;99.90
15596;DHT22;7898;48.658;9.068;2022-12-19T00:27:02;-2.30;99.90
15596;DHT22;7898;48.658;9.068;2022-12-19T00:29:29;-2.30;99.90
15596;DHT22;7898;48.658;9.068;2022-12-19T00:31:57;-2.30;99.90
15596;DHT22;7898;48.658;9.068;2022-12-19T00:34:24;-2.30;99.90
15596;DHT22;7898;48.658;9.068;2022-12-19T00:36:52;-2.30;99.90
15596;DHT22;7898;48.658;9.068;2022-12-19T00:39:19;-2.20;99.90
15596;DHT22;7898;48.658;9.068;2022-12-19T00:41:46;-2.20;99.90
15596;DHT22;7898;48.658;9.068;2022-12-19T00:44:13;-2.20;99.90
15596;DHT22;7898;48.658;9.068;2022-12-19T00:46:43;-2.20;99.90
15596;DHT22;7898;48.658;9.068;2022-12-19T00:49:10;-2.20;99.90
15596;DHT22;7898;48.658;9.068;2022-12-19T00:51:38;-2.20;99.90
15596;DHT22;7898;48.658;9.068;2022-12-19T00:54:06;-2.20;99.90
15596;DHT22;7898;48.658;9.068;2022-12-19T00:56:34;-2.20;99.90
15596;DHT22;7898;48.658;9.068;2022-12-19T00:59:01;-2.10;99.90
15596;DHT22;7898;48.658;9.068;2022-12-19T01:01:30;-2.10;99.90
15596;DHT22;7898;48.658;9.068;2022-12-19T01:03:58;-2.10;99.90
15596;DHT22;7898;48.658;9.068;2022-12-19T01:06:26;-2.00;99.90
15596;DHT22;7898;48.658;9.068;2022-12-19T01:08:53;-1.70;99.90
15596;DHT22;7898;48.658;9.068;2022-12-19T01:11:22;-2.00;99.90
15596;DHT22;7898;48.658;9.068;2022-12-19T01:14:09;-2.00;99.90
15596;DHT22;7898;48.658;9.068;2022-12-19T01:16:35;-1.50;99.90
15596;DHT22;7898;48.658;9.068;2022-12-19T01:19:02;-1.90;99.90
15596;DHT22;7898;48.658;9.068;2022-12-19T01:21:29;-1.30;99.90
15596;DHT22;7898;48.658;9.068;2022-12-19T01:23:56;-1.80;99.90
15596;DHT22;7898;48.658;9.068;2022-12-19T01:26:24;-1.70;99.90
15596;DHT22;7898;48.658;9.068;2022-12-19T01:28:51;-1.70;99.90
15596;DHT22;7898;48.658;9.068;2022-12-19T01:31:18;-1.70;99.90
15596;DHT22;7898;48.658;9.068;2022-12-19T01:33:44;-1.70;99.90
15596;DHT22;7898;48.658;9.068;2022-12-19T01:36:11;-1.70;99.90
15596;DHT22;7898;48.658;9.068;2022-12-19T01:38:38;-1.60;99.90
15596;DHT22;7898;48.658;9.068;2022-12-19T01:41:05;-1.50;99.90
15596;DHT22;7898;48.658;9.068;2022-12-19T01:43:55;-1.40;99.90
15596;DHT22;7898;48.658;9.068;2022-12-19T01:46:25;-1.50;99.90
15596;DHT22;7898;48.658;9.068;2022-12-19T01:48:53;-1.50;99.90
15596;DHT22;7898;48.658;9.068;2022-12-19T01:51:22;-1.50;99.90
15596;DHT22;7898;48.658;9.068;2022-12-19T01:53:53;-1.60;99.90
15596;DHT22;7898;48.658;9.068;2022-12-19T01:56:27;-1.50;99.90
15596;DHT22;7898;48.658;9.068;2022-12-19T01:58:58;-1.50;99.90
15596;DHT22;7898;48.658;9.068;2022-12-19T02:01:26;-1.50;99.90
15596;DHT22;7898;48.658;9.068;2022-12-19T02:03:54;-1.50;99.90
15596;DHT22;7898;48.658;9.068;2022-12-19T02:06:23;-1.50;99.90
15596;DHT22;7898;48.658;9.068;2022-12-19T02:08:51;-1.60;99.90
15596;DHT22;7898;48.658;9.068;2022-12-19T02:11:18;-1.60;99.90
15596;DHT22;7898;48.658;9.068;2022-12-19T02:13:45;-1.60;99.90
15596;DHT22;7898;48.658;9.068;2022-12-19T02:16:23;-1.60;99.90
15596;DHT22;7898;48.658;9.068;2022-12-19T02:18:56;-1.60;99.90
15596;DHT22;7898;48.658;9.068;2022-12-19T02:21:37;-1.60;99.90
15596;DHT22;7898;48.658;9.068;2022-12-19T02:30:16;-1.60;99.90
15596;DHT22;7898;48.658;9.068;2022-12-19T02:32:54;-1.50;99.90
15596;DHT22;7898;48.658;9.068;2022-12-19T02:35:28;-1.40;99.90
15596;DHT22;7898;48.658;9.068;2022-12-19T02:38:07;-1.40;99.90
15596;DHT22;7898;48.658;9.068;2022-12-19T02:40:40;-1.40;99.90
15596;DHT22;7898;48.658;9.068;2022-12-19T02:43:09;-1.30;99.90
15596;DHT22;7898;48.658;9.068;2022-12-19T02:45:38;-1.20;99.90
15596;DHT22;7898;48.658;9.068;2022-12-19T02:48:08;-1.10;99.90
15596;DHT22;7898;48.658;9.068;2022-12-19T02:50:37;-1.10;99.90
15596;DHT22;7898;48.658;9.068;2022-12-19T02:53:04;-1.00;99.90
15596;DHT22;7898;48.658;9.068;2022-12-19T02:55:37;-1.00;99.90
15596;DHT22;7898;48.658;9.068;2022-12-19T02:58:26;-0.90;99.90
15596;DHT22;7898;48.658;9.068;2022-12-19T03:01:06;-0.90;99.90
15596;DHT22;7898;48.658;9.068;2022-12-19T03:03:43;-0.90;99.90
15596;DHT22;7898;48.658;9.068;2022-12-19T03:06:20;-0.80;99.90
15596;DHT22;7898;48.658;9.068;2022-12-19T03:08:56;-0.60;99.90
15596;DHT22;7898;48.658;9.068;2022-12-19T03:11:30;-0.50;99.90
15596;DHT22;7898;48.658;9.068;2022-12-19T03:14:02;-0.50;99.90
15596;DHT22;7898;48.658;9.068;2022-12-19T03:16:29;-0.60;99.90
15596;DHT22;7898;48.658;9.068;2022-12-19T03:18:57;-0.50;99.90
15596;DHT22;7898;48.658;9.068;2022-12-19T03:21:27;-0.40;99.90
15596;DHT22;7898;48.658;9.068;2022-12-19T03:23:55;-0.40;99.90
15596;DHT22;7898;48.658;9.068;2022-12-19T03:26:24;-0.50;99.90
15596;DHT22;7898;48.658;9.068;2022-12-19T03:28:56;-0.50;99.90
15596;DHT22;7898;48.658;9.068;2022-12-19T03:31:27;-0.60;99.90
15596;DHT22;7898;48.658;9.068;2022-12-19T03:33:59;-0.50;99.90
15596;DHT22;7898;48.658;9.068;2022-12-19T03:36:30;-0.10;99.90
15596;DHT22;7898;48.658;9.068;2022-12-19T03:39:00;-0.30;99.90
15596;DHT22;7898;48.658;9.068;2022-12-19T03:41:30;-0.30;99.90
15596;DHT22;7898;48.658;9.068;2022-12-19T03:44:17;-0.40;99.90
15596;DHT22;7898;48.658;9.068;2022-12-19T03:46:52;-0.10;99.90
15596;DHT22;7898;48.658;9.068;2022-12-19T03:49:22;-0.50;99.90
15596;DHT22;7898;48.658;9.068;2022-12-19T03:51:53;-0.40;99.90
15596;DHT22;7898;48.658;9.068;2022-12-19T03:54:24;-0.40;99.90
15596;DHT22;7898;48.658;9.068;2022-12-19T03:56:57;-0.40;99.90
15596;DHT22;7898;48.658;9.068;2022-12-19T03:59:30;-0.40;99.90
15596;DHT22;7898;48.658;9.068;2022-12-19T04:02:00;-0.40;99.90
15596;DHT22;7898;48.658;9.068;2022-12-19T04:04:30;-0.40;99.90
15596;DHT22;7898;48.658;9.068;2022-12-19T04:07:00;-0.30;99.90
15596;DHT22;7898;48.658;9.068;2022-12-19T04:09:29;-0.50;99.90
15596;DHT22;7898;48.658;9.068;2022-12-19T04:11:59;-0.50;99.90
15596;DHT22;7898;48.658;9.068;2022-12-19T04:14:29;-0.50;99.90
15596;DHT22;7898;48.658;9.068;2022-12-19T04:17:01;-0.50;99.90
15596;DHT22;7898;48.658;9.068;2022-12-19T04:19:36;-0.50;99.90
15596;DHT22;7898;48.658;9.068;2022-12-19T04:22:11;-0.50;99.90
15596;DHT22;7898;48.658;9.068;2022-12-19T04:24:40;-0.50;99.90
15596;DHT22;7898;48.658;9.068;2022-12-19T04:27:10;-0.50;99.90
15596;DHT22;7898;48.658;9.068;2022-12-19T04:29:38;-0.50;99.90
15596;DHT22;7898;48.658;9.068;2022-12-19T04:32:07;-0.50;99.90
15596;DHT22;7898;48.658;9.068;2022-12-19T04:34:36;-0.40;99.90
15596;DHT22;7898;48.658;9.068;2022-12-19T04:37:03;0.30;99.90
15596;DHT22;7898;48.658;9.068;2022-12-19T04:39:30;-0.40;99.90
15596;DHT22;7898;48.658;9.068;2022-12-19T04:41:57;-0.30;99.90
15596;DHT22;7898;48.658;9.068;2022-12-19T04:44:24;-0.20;99.90
15596;DHT22;7898;48.658;9.068;2022-12-19T04:46:51;0.00;99.90
15596;DHT22;7898;48.658;9.068;2022-12-19T04:49:18;-0.20;99.90
15596;DHT22;7898;48.658;9.068;2022-12-19T04:51:46;0.00;99.90
15596;DHT22;7898;48.658;9.068;2022-12-19T04:54:13;0.00;99.90
15596;DHT22;7898;48.658;9.068;2022-12-19T04:56:40;0.10;99.90
15596;DHT22;7898;48.658;9.068;2022-12-19T04:59:07;0.20;99.90
15596;DHT22;7898;48.658;9.068;2022-12-19T05:01:34;0.20;99.90
15596;DHT22;7898;48.658;9.068;2022-12-19T05:04:01;0.20;99.90
15596;DHT22;7898;48.658;9.068;2022-12-19T05:06:28;0.20;99.90
15596;DHT22;7898;48.658;9.068;2022-12-19T05:08:57;0.20;99.90
15596;DHT22;7898;48.658;9.068;2022-12-19T05:11:23;0.10;99.90
15596;DHT22;7898;48.658;9.068;2022-12-19T05:13:50;0.20;99.90
15596;DHT22;7898;48.658;9.068;2022-12-19T05:16:17;0.20;99.90
15596;DHT22;7898;48.658;9.068;2022-12-19T05:18:44;0.20;99.90
15596;DHT22;7898;48.658;9.068;2022-12-19T05:21:11;0.20;99.90
15596;DHT22;7898;48.658;9.068;2022-12-19T05:23:39;0.20;99.90
15596;DHT22;7898;48.658;9.068;2022-12-19T05:26:07;0.20;99.90
15596;DHT22;7898;48.658;9.068;2022-12-19T05:28:34;0.20;99.90
15596;DHT22;7898;48.658;9.068;2022-12-19T05:31:02;0.20;99.90
15596;DHT22;7898;48.658;9.068;2022-12-19T05:33:29;0.20;99.90
15596;DHT22;7898;48.658;9.068;2022-12-19T05:35:56;0.30;99.90
15596;DHT22;7898;48.658;9.068;2022-12-19T05:38:24;0.40;99.90
15596;DHT22;7898;48.658;9.068;2022-12-19T05:40:51;0.30;99.90
15596;DHT22;7898;48.658;9.068;2022-12-19T05:43:19;0.40;99.90
15596;DHT22;7898;48.658;9.068;2022-12-19T05:45:46;0.50;99.90
15596;DHT22;7898;48.658;9.068;2022-12-19T05:48:13;0.60;99.90
15596;DHT22;7898;48.658;9.068;2022-12-19T05:50:40;0.70;99.90
15596;DHT22;7898;48.658;9.068;2022-12-19T05:53:07;0.80;99.90
15596;DHT22;7898;48.658;9.068;2022-12-19T05:55:34;0.80;99.90
15596;DHT22;7898;48.658;9.068;2022-12-19T05:58:01;0.70;99.90
15596;DHT22;7898;48.658;9.068;2022-12-19T06:00:29;0.70;99.90
15596;DHT22;7898;48.658;9.068;2022-12-19T06:03:05;1.00;99.90
15596;DHT22;7898;48.658;9.068;2022-12-19T06:05:35;0.70;99.90
15596;DHT22;7898;48.658;9.068;2022-12-19T06:08:03;0.70;99.90
15596;DHT22;7898;48.658;9.068;2022-12-19T06:10:30;0.70;99.90
15596;DHT22;7898;48.658;9.068;2022-12-19T06:12:56;0.70;99.90
15596;DHT22;7898;48.658;9.068;2022-12-19T06:15:23;0.80;99.90
15596;DHT22;7898;48.658;9.068;2022-12-19T06:17:53;0.80;99.90
15596;DHT22;7898;48.658;9.068;2022-12-19T06:20:20;0.80;99.90
15596;DHT22;7898;48.658;9.068;2022-12-19T06:22:47;1.50;99.90
15596;DHT22;7898;48.658;9.068;2022-12-19T06:25:14;0.80;99.90
15596;DHT22;7898;48.658;9.068;2022-12-19T06:27:41;0.80;99.90
15596;DHT22;7898;48.658;9.068;2022-12-19T06:30:08;0.80;99.90
15596;DHT22;7898;48.658;9.068;2022-12-19T06:32:35;0.80;99.90
15596;DHT22;7898;48.658;9.068;2022-12-19T06:35:04;0.80;99.90
15596;DHT22;7898;48.658;9.068;2022-12-19T06:37:31;0.90;99.90
15596;DHT22;7898;48.658;9.068;2022-12-19T06:39:58;0.90;99.90
15596;DHT22;7898;48.658;9.068;2022-12-19T06:42:25;0.90;99.90
15596;DHT22;7898;48.658;9.068;2022-12-19T06:44:52;1.00;99.90
15596;DHT22;7898;48.658;9.068;2022-12-19T06:47:20;1.00;99.90
15596;DHT22;7898;48.658;9.068;2022-12-19T06:49:48;1.00;99.90
15596;DHT22;7898;48.658;9.068;2022-12-19T06:52:16;1.00;99.90
15596;DHT22;7898;48.658;9.068;2022-12-19T06:54:43;1.00;99.90
15596;DHT22;7898;48.658;9.068;2022-12-19T06:57:10;0.90;99.90
15596;DHT22;7898;48.658;9.068;2022-12-19T06:59:37;0.90;99.90
15596;DHT22;7898;48.658;9.068;2022-12-19T07:02:16;0.90;99.90
15596;DHT22;7898;48.658;9.068;2022-12-19T07:04:46;0.90;99.90
15596;DHT22;7898;48.658;9.068;2022-12-19T07:07:16;0.90;99.90
15596;DHT22;7898;48.658;9.068;2022-12-19T07:09:43;0.90;99.90
15596;DHT22;7898;48.658;9.068;2022-12-19T07:12:09;0.90;99.90
15596;DHT22;7898;48.658;9.068;2022-12-19T07:14:36;0.90;99.90
15596;DHT22;7898;48.658;9.068;2022-12-19T07:17:03;1.00;99.90
15596;DHT22;7898;48.658;9.068;2022-12-19T07:19:32;1.00;99.90
15596;DHT22;7898;48.658;9.068;2022-12-19T07:22:01;1.00;99.90
15596;DHT22;7898;48.658;9.068;2022-12-19T07:24:30;1.00;99.90
15596;DHT22;7898;48.658;9.068;2022-12-19T07:26:58;1.10;99.90
15596;DHT22;7898;48.658;9.068;2022-12-19T07:29:25;1.10;99.90
15596;DHT22;7898;48.658;9.068;2022-12-19T07:31:52;1.10;99.90
15596;DHT22;7898;48.658;9.068;2022-12-19T07:34:19;1.10;99.90
15596;DHT22;7898;48.658;9.068;2022-12-19T07:36:46;1.80;99.90
15596;DHT22;7898;48.658;9.068;2022-12-19T07:39:15;1.00;99.90
15596;DHT22;7898;48.658;9.068;2022-12-19T07:41:43;1.00;99.90
15596;DHT22;7898;48.658;9.068;2022-12-19T07:44:10;1.90;99.90
15596;DHT22;7898;48.658;9.068;2022-12-19T07:46:40;1.00;99.90
15596;DHT22;7898;48.658;9.068;2022-12-19T07:49:07;1.10;99.90
15596;DHT22;7898;48.658;9.068;2022-12-19T07:51:34;1.20;99.90
15596;DHT22;7898;48.658;9.068;2022-12-19T07:54:01;1.30;99.90
15596;DHT22;7898;48.658;9.068;2022-12-19T07:56:31;1.20;99.90
15596;DHT22;7898;48.658;9.068;2022-12-19T07:58:59;1.20;99.90
15596;DHT22;7898;48.658;9.068;2022-12-19T08:01:26;1.30;99.90
15596;DHT22;7898;48.658;9.068;2022-12-19T08:03:53;1.20;99.90
15596;DHT22;7898;48.658;9.068;2022-12-19T08:06:20;1.20;99.90
15596;DHT22;7898;48.658;9.068;2022-12-19T08:08:48;1.50;99.90
15596;DHT22;7898;48.658;9.068;2022-12-19T08:11:16;1.40;99.90
15596;DHT22;7898;48.658;9.068;2022-12-19T10:48:03;5.60;99.90
15596;DHT22;7898;48.658;9.068;2022-12-19T10:50:30;5.60;99.90
15596;DHT22;7898;48.658;9.068;2022-12-19T10:53:07;5.50;99.90
15596;DHT22;7898;48.658;9.068;2022-12-19T10:55:45;5.50;99.90
15596;DHT22;7898;48.658;9.068;2022-12-19T10:58:19;5.40;99.90
15596;DHT22;7898;48.658;9.068;2022-12-19T11:01:03;5.40;99.90
15596;DHT22;7898;48.658;9.068;2022-12-19T11:03:33;5.40;99.90
15596;DHT22;7898;48.658;9.068;2022-12-19T11:06:01;5.40;99.90
15596;DHT22;7898;48.658;9.068;2022-12-19T11:08:31;5.30;99.90
15596;DHT22;7898;48.658;9.068;2022-12-19T11:11:10;5.30;99.90
15596;DHT22;7898;48.658;9.068;2022-12-19T11:13:42;5.30;99.90
15596;DHT22;7898;48.658;9.068;2022-12-19T11:16:11;5.50;99.90
15596;DHT22;7898;48.658;9.068;2022-12-19T11:18:42;5.80;99.90
15596;DHT22;7898;48.658;9.068;2022-12-19T11:21:16;6.20;99.90
15596;DHT22;7898;48.658;9.068;2022-12-19T11:23:49;6.70;99.90
15596;DHT22;7898;48.658;9.068;2022-12-19T11:26:32;6.80;99.90
15596;DHT22;7898;48.658;9.068;2022-12-19T11:29:03;7.10;99.90
15596;DHT22;7898;48.658;9.068;2022-12-19T11:31:31;7.40;99.90
15596;DHT22;7898;48.658;9.068;2022-12-19T11:34:05;7.60;99.90
15596;DHT22;7898;48.658;9.068;2022-12-19T11:36:38;7.60;99.90
15596;DHT22;7898;48.658;9.068;2022-12-19T11:39:14;7.50;99.90
15596;DHT22;7898;48.658;9.068;2022-12-19T11:41:48;7.30;99.90
15596;DHT22;7898;48.658;9.068;2022-12-19T11:44:25;7.00;99.90
15596;DHT22;7898;48.658;9.068;2022-12-19T11:47:02;7.00;99.90
15596;DHT22;7898;48.658;9.068;2022-12-19T11:49:36;7.00;99.90
15596;DHT22;7898;48.658;9.068;2022-12-19T11:52:13;6.90;99.90
15596;DHT22;7898;48.658;9.068;2022-12-19T11:54:51;6.90;99.90
15596;DHT22;7898;48.658;9.068;2022-12-19T11:57:21;7.00;99.90
15596;DHT22;7898;48.658;9.068;2022-12-19T11:59:51;7.00;99.90
15596;DHT22;7898;48.658;9.068;2022-12-19T12:02:46;7.00;99.90
15596;DHT22;7898;48.658;9.068;2022-12-19T12:05:30;7.00;99.90
15596;DHT22;7898;48.658;9.068;2022-12-19T12:08:28;7.10;99.90
15596;DHT22;7898;48.658;9.068;2022-12-19T12:11:00;7.10;99.90
15596;DHT22;7898;48.658;9.068;2022-12-19T12:13:35;7.20;99.90
15596;DHT22;7898;48.658;9.068;2022-12-19T12:16:08;7.30;99.90
15596;DHT22;7898;48.658;9.068;2022-12-19T12:18:50;7.40;99.90
15596;DHT22;7898;48.658;9.068;2022-12-19T12:21:25;7.50;99.90
15596;DHT22;7898;48.658;9.068;2022-12-19T12:24:09;7.50;99.90
15596;DHT22;7898;48.658;9.068;2022-12-19T12:26:46;7.70;99.90
15596;DHT22;7898;48.658;9.068;2022-12-19T12:29:19;7.70;99.90
15596;DHT22;7898;48.658;9.068;2022-12-19T12:32:01;7.70;99.90
15596;DHT22;7898;48.658;9.068;2022-12-19T12:34:51;7.60;99.90
15596;DHT22;7898;48.658;9.068;2022-12-19T12:37:35;7.50;99.90
